Time;durP1;ratioP1;P1;durP2;ratioP2;P2;SDS_P1;SDS_P2;PMS_P1;PMS_P2;Temp;Humidity;BMP_temperature;BMP_pressure;BME280_temperature;BME280_humidity;BME280_pressure;Samples;Min_cycle;Max_cycle;Signal;HPM_P1;HPM_P2
2021/04/26 00:01:23;;;;;;;7.82;2.75;;;;;;;9.09;44.39;102396.47;4913576;28;123615;-73
2021/04/26 00:03:50;;;;;;;5.88;2.67;;;;;;;9.05;44.34;102402.69;4906360;28;114591;-73
2021/04/26 00:06:17;;;;;;;6.75;2.70;;;;;;;9.02;44.54;102392.16;4914425;28;114054;-73
2021/04/26 00:08:44;;;;;;;8.35;2.60;;;;;;;8.97;44.46;102388.72;4912789;28;124003;-73
2021/04/26 00:11:11;;;;;;;9.18;2.85;;;;;;;8.93;44.55;102381.72;4912070;28;124606;-73
2021/04/26 00:13:37;;;;;;;6.95;2.60;;;;;;;8.89;44.74;102380.00;4917923;28;115075;-73
2021/04/26 00:16:04;;;;;;;8.55;2.50;;;;;;;8.85;44.56;102379.16;4917257;28;115105;-73
2021/04/26 00:18:31;;;;;;;6.72;2.30;;;;;;;8.84;44.53;102374.78;4911784;28;123719;-72
2021/04/26 00:20:58;;;;;;;6.47;2.53;;;;;;;8.83;44.34;102372.16;4905814;28;123423;-73
2021/04/26 00:23:24;;;;;;;9.13;2.83;;;;;;;8.81;44.59;102371.31;4904876;28;113693;-73
2021/04/26 00:25:51;;;;;;;9.10;2.85;;;;;;;8.75;44.68;102367.84;4914923;28;113592;-73
2021/04/26 00:28:17;;;;;;;7.43;2.65;;;;;;;8.72;44.76;102367.00;4926455;28;123761;-73
2021/04/26 00:30:44;;;;;;;7.47;2.75;;;;;;;8.68;44.77;102355.63;4901419;28;123795;-73
2021/04/26 00:33:11;;;;;;;7.40;2.80;;;;;;;8.66;44.81;102360.03;4897623;28;113309;-73
2021/04/26 00:35:37;;;;;;;8.20;2.60;;;;;;;8.62;44.86;102366.25;4924057;28;113678;-73
2021/04/26 00:38:04;;;;;;;8.13;2.80;;;;;;;8.60;44.56;102362.75;4913760;28;124129;-73
2021/04/26 00:40:31;;;;;;;5.78;2.38;;;;;;;8.57;44.65;102362.81;4897428;28;123653;-73
2021/04/26 00:42:57;;;;;;;6.78;2.38;;;;;;;8.55;44.82;102359.28;4916602;28;114225;-73
2021/04/26 00:45:25;;;;;;;8.98;3.08;;;;;;;8.52;44.68;102359.34;4898788;28;113156;-73
2021/04/26 00:47:53;;;;;;;6.60;2.70;;;;;;;8.49;44.70;102359.38;4911308;28;123626;-73
2021/04/26 00:50:27;;;;;;;5.82;2.60;;;;;;;8.44;44.99;102361.19;4910836;28;124106;-72
2021/04/26 00:52:55;;;;;;;5.13;2.60;;;;;;;8.39;44.80;102343.59;4903357;28;112429;-72
2021/04/26 00:55:26;;;;;;;7.97;2.83;;;;;;;8.35;44.97;102352.47;4906832;28;113116;-73
2021/04/26 00:57:53;;;;;;;6.68;2.38;;;;;;;8.33;45.04;102348.09;4906085;28;123949;-73
2021/04/26 01:00:21;;;;;;;7.63;2.90;;;;;;;8.30;45.05;102348.13;4916088;28;123989;-73
2021/04/26 01:02:48;;;;;;;8.43;2.65;;;;;;;8.28;45.05;102345.50;4914881;28;114646;-72
2021/04/26 01:05:22;;;;;;;7.28;2.85;;;;;;;8.26;44.95;102336.72;4899244;28;114299;-73
2021/04/26 01:07:50;;;;;;;9.30;2.78;;;;;;;8.24;44.86;102333.22;4912309;28;125874;-73
2021/04/26 01:10:24;;;;;;;6.93;2.72;;;;;;;8.20;44.89;102331.53;4899895;28;123321;-73
2021/04/26 01:13:18;;;;;;;7.70;2.70;;;;;;;8.16;45.18;102335.09;4917469;28;114555;-73
2021/04/26 01:16:09;;;;;;;7.35;2.90;;;;;;;8.14;44.82;102331.59;4902106;28;113077;-73
2021/04/26 01:18:49;;;;;;;5.30;2.60;;;;;;;8.10;44.85;102335.13;4908802;28;124102;-73
2021/04/26 01:21:35;;;;;;;9.35;2.72;;;;;;;8.06;44.84;102328.16;4883864;28;122885;-73
2021/04/26 01:24:35;;;;;;;8.90;2.47;;;;;;;8.03;45.03;102326.44;4908113;28;113651;-73
2021/04/26 01:27:15;;;;;;;8.23;2.80;;;;;;;8.01;44.71;102324.69;4899113;28;113022;-73
2021/04/26 01:30:15;;;;;;;6.72;2.75;;;;;;;7.97;44.99;102324.72;4908883;28;124075;-73
2021/04/26 01:33:08;;;;;;;9.10;2.70;;;;;;;7.95;44.89;102326.50;4895507;28;125818;-73
2021/04/26 01:35:41;;;;;;;7.78;3.00;;;;;;;7.92;44.79;102315.09;4906475;28;113617;-73
2021/04/26 01:38:18;;;;;;;6.32;2.75;;;;;;;7.88;45.11;102314.25;4898729;28;113407;-73
2021/04/26 01:40:48;;;;;;;9.02;3.13;;;;;;;7.87;45.08;102307.22;4911990;28;123855;-73
2021/04/26 01:43:17;;;;;;;7.28;2.72;;;;;;;7.84;44.91;102304.63;4898656;28;122943;-72
2021/04/26 01:45:49;;;;;;;7.95;2.72;;;;;;;7.82;45.19;102306.41;4932013;28;114390;-72
2021/04/26 01:48:16;;;;;;;12.20;3.28;;;;;;;7.79;44.98;102301.16;4905233;28;113523;-72
2021/04/26 01:50:48;;;;;;;8.32;3.03;;;;;;;7.78;45.05;102302.94;4919873;28;123268;-72
2021/04/26 01:53:16;;;;;;;8.32;2.70;;;;;;;7.77;45.23;102300.31;4898298;28;122966;-72
2021/04/26 01:55:45;;;;;;;8.50;3.05;;;;;;;7.74;45.28;102300.31;4882179;28;115434;-72
2021/04/26 01:58:14;;;;;;;5.95;2.80;;;;;;;7.72;45.33;102304.75;4905484;28;113922;-72
2021/04/26 02:00:42;;;;;;;6.90;2.42;;;;;;;7.69;45.04;102299.53;4914938;28;124151;-72
2021/04/26 02:03:12;;;;;;;6.95;2.90;;;;;;;7.68;44.90;102300.41;4920588;28;122957;-72
2021/04/26 02:06:12;;;;;;;8.15;3.00;;;;;;;7.67;44.87;102298.66;4954813;28;114006;-72
2021/04/26 02:09:05;;;;;;;7.30;2.92;;;;;;;7.65;45.12;102300.41;4921675;28;113499;-73
2021/04/26 02:11:34;;;;;;;7.72;3.25;;;;;;;7.64;45.00;102296.03;4881976;28;123332;-72
2021/04/26 02:14:02;;;;;;;8.88;2.78;;;;;;;7.63;45.18;102299.56;4916080;28;124144;-72
2021/04/26 02:16:28;;;;;;;5.90;2.78;;;;;;;7.58;45.05;102292.56;4897982;28;114653;-72
2021/04/26 02:18:56;;;;;;;12.40;3.20;;;;;;;7.55;45.41;102294.34;4882761;28;112503;-72
2021/04/26 02:21:22;;;;;;;8.40;3.05;;;;;;;7.54;45.05;102298.75;4912896;28;122598;-72
2021/04/26 02:23:49;;;;;;;5.13;3.17;;;;;;;7.49;45.19;102295.28;4924251;28;124672;-72
2021/04/26 02:26:16;;;;;;;7.15;3.00;;;;;;;7.50;44.98;102294.41;4917722;28;113801;-72
2021/04/26 02:28:44;;;;;;;6.35;3.30;;;;;;;7.49;45.04;102294.41;4898024;28;114129;-72
2021/04/26 02:31:16;;;;;;;10.30;3.10;;;;;;;7.47;45.31;102297.06;4897204;28;123466;-72
2021/04/26 02:33:58;;;;;;;10.23;3.17;;;;;;;7.43;45.29;102295.34;4915777;28;123064;-73
2021/04/26 02:36:38;;;;;;;7.05;3.50;;;;;;;7.40;45.23;102290.09;4902833;28;112966;-72
2021/04/26 02:39:07;;;;;;;6.65;3.25;;;;;;;7.37;45.40;102285.72;4897907;28;113207;-72
2021/04/26 02:41:39;;;;;;;7.85;3.05;;;;;;;7.35;45.53;102281.38;4911197;28;123072;-72
2021/04/26 02:44:30;;;;;;;14.95;3.30;;;;;;;7.31;45.39;102279.63;4909774;28;123015;-72
2021/04/26 02:47:06;;;;;;;7.28;3.10;;;;;;;7.31;45.35;102276.97;4896549;28;114324;-72
2021/04/26 02:49:35;;;;;;;10.38;3.25;;;;;;;7.27;45.28;102272.63;4914192;28;113484;-72
2021/04/26 02:52:04;;;;;;;7.35;3.10;;;;;;;7.25;45.42;102269.13;4928758;28;123245;-73
2021/04/26 02:54:35;;;;;;;10.45;3.28;;;;;;;7.20;45.37;102267.41;4908120;28;123228;-73
2021/04/26 02:57:03;;;;;;;7.18;3.35;;;;;;;7.17;45.39;102272.69;4905081;28;113895;-72
2021/04/26 02:59:31;;;;;;;7.03;3.10;;;;;;;7.14;45.44;102267.47;4914944;28;114178;-71
2021/04/26 03:02:01;;;;;;;7.50;3.22;;;;;;;7.11;45.64;102267.47;4915266;28;124474;-71
2021/04/26 03:04:48;;;;;;;7.43;3.40;;;;;;;7.07;45.39;102260.50;4924020;28;124956;-71
2021/04/26 03:07:17;;;;;;;9.90;3.50;;;;;;;7.05;45.73;102262.28;4898796;28;114392;-71
2021/04/26 03:09:57;;;;;;;6.30;3.10;;;;;;;7.03;45.79;102248.25;4899973;28;114214;-71
2021/04/26 03:12:31;;;;;;;7.78;3.28;;;;;;;7.01;45.76;102250.00;4896311;28;124079;-71
2021/04/26 03:14:59;;;;;;;8.18;3.38;;;;;;;7.02;45.48;102246.47;4913094;28;123256;-72
2021/04/26 03:17:26;;;;;;;6.53;3.30;;;;;;;6.99;45.86;102242.13;4903221;28;113569;-71
2021/04/26 03:20:04;;;;;;;9.40;3.25;;;;;;;6.98;45.75;102236.84;4914259;28;114639;-71
2021/04/26 03:22:37;;;;;;;5.80;2.92;;;;;;;6.95;45.56;102239.50;4898142;28;124097;-72
2021/04/26 03:25:06;;;;;;;7.93;3.33;;;;;;;6.92;45.59;102234.28;4927093;28;123641;-72
2021/04/26 03:27:34;;;;;;;11.15;3.80;;;;;;;6.89;45.81;102234.28;4912664;28;113505;-71
2021/04/26 03:30:10;;;;;;;9.10;3.55;;;;;;;6.85;45.99;102232.56;4912376;28;111981;-72
2021/04/26 03:32:50;;;;;;;7.65;3.13;;;;;;;6.81;45.90;102229.94;4910307;28;122618;-72
2021/04/26 03:35:20;;;;;;;8.00;3.28;;;;;;;6.78;45.83;102231.72;4911590;28;122273;-72
2021/04/26 03:37:50;;;;;;;12.38;3.55;;;;;;;6.74;45.94;102230.91;4927935;28;114692;-73
2021/04/26 03:40:27;;;;;;;8.45;3.65;;;;;;;6.72;46.19;102231.78;4924165;28;113664;-72
2021/04/26 03:42:58;;;;;;;8.20;3.28;;;;;;;6.69;46.14;102226.56;4929222;23;124692;-66
2021/04/26 03:45:33;;;;;;;7.60;3.65;;;;;;;6.66;46.18;102227.41;4914946;28;123259;-67
2021/04/26 03:48:27;;;;;;;9.10;3.47;;;;;;;6.65;46.16;102225.69;4881953;28;114764;-67
2021/04/26 03:51:04;;;;;;;9.40;3.38;;;;;;;6.63;45.96;102227.47;4913172;28;113288;-66
2021/04/26 03:53:56;;;;;;;8.20;3.35;;;;;;;6.61;46.23;102222.19;4927046;28;125680;-66
2021/04/26 03:56:44;;;;;;;11.23;4.03;;;;;;;6.60;46.20;102211.69;4926295;28;125913;-67
2021/04/26 03:59:14;;;;;;;7.30;3.20;;;;;;;6.59;46.17;102215.19;4900341;28;113334;-67
2021/04/26 04:01:41;;;;;;;6.22;2.97;;;;;;;6.57;46.31;102216.94;4909933;28;113388;-68
2021/04/26 04:04:08;;;;;;;7.63;3.22;;;;;;;6.57;46.06;102222.22;4924687;28;123390;-68
2021/04/26 04:06:55;;;;;;;8.13;3.50;;;;;;;6.54;46.14;102227.50;4901681;28;124368;-68
2021/04/26 04:09:40;;;;;;;9.80;3.92;;;;;;;6.49;46.28;102224.03;4903740;28;115014;-68
2021/04/26 04:12:30;;;;;;;8.05;3.47;;;;;;;6.45;46.34;102227.56;4914729;28;114003;-67
2021/04/26 04:15:06;;;;;;;10.27;3.60;;;;;;;6.41;45.97;102221.44;4911950;28;124226;-67
2021/04/26 04:17:33;;;;;;;11.77;3.58;;;;;;;6.39;46.29;102224.06;4911178;28;123799;-68
2021/04/26 04:20:06;;;;;;;8.30;3.22;;;;;;;6.36;46.24;102229.34;4912853;28;114367;-68
2021/04/26 04:22:36;;;;;;;10.25;3.45;;;;;;;6.34;46.54;102225.84;4914602;28;113927;-68
2021/04/26 04:25:04;;;;;;;7.32;3.22;;;;;;;6.30;46.58;102218.84;4911506;28;124875;-68
2021/04/26 04:27:32;;;;;;;8.68;3.42;;;;;;;6.29;46.64;102222.38;4912952;28;124068;-68
2021/04/26 04:30:06;;;;;;;9.82;3.38;;;;;;;6.30;46.72;102218.00;4913846;28;114889;-68
2021/04/26 04:33:02;;;;;;;7.28;3.42;;;;;;;6.29;46.66;102217.13;4898071;28;115246;-68
2021/04/26 04:35:49;;;;;;;10.80;3.63;;;;;;;6.30;46.84;102218.84;4913276;28;124467;-68
2021/04/26 04:38:40;;;;;;;10.60;3.70;;;;;;;6.30;46.86;102213.59;4887054;28;124522;-68
2021/04/26 04:41:25;;;;;;;7.78;3.45;;;;;;;6.28;46.67;102218.00;4911607;28;114997;-68
2021/04/26 04:43:54;;;;;;;8.95;3.33;;;;;;;6.27;47.07;102220.63;4918319;28;113267;-68
2021/04/26 04:46:21;;;;;;;9.18;3.55;;;;;;;6.25;46.86;102210.09;4915899;28;123530;-68
2021/04/26 04:48:58;;;;;;;9.25;3.50;;;;;;;6.27;46.94;102213.59;4909186;28;127014;-68
2021/04/26 04:51:26;;;;;;;8.38;3.90;;;;;;;6.26;47.17;102209.25;4889839;28;113722;-68
2021/04/26 04:54:03;;;;;;;11.93;3.92;;;;;;;6.28;47.07;102198.72;4909873;28;113109;-68
2021/04/26 04:56:40;;;;;;;11.32;4.30;;;;;;;6.30;47.18;102208.34;4916597;28;125998;-68
2021/04/26 04:59:07;;;;;;;8.25;4.00;;;;;;;6.31;47.17;102210.09;4920656;28;124125;-68
2021/04/26 05:01:36;;;;;;;10.98;4.07;;;;;;;6.34;47.21;102209.19;4912862;28;114266;-68
2021/04/26 05:04:22;;;;;;;7.97;3.53;;;;;;;6.36;47.42;102208.28;4924078;28;116342;-68
2021/04/26 05:07:08;;;;;;;8.48;4.35;;;;;;;6.37;47.25;102210.06;4913014;28;124786;-68
2021/04/26 05:09:54;;;;;;;;;;;;;;;6.38;46.79;102216.19;4914707;28;124789;-68
2021/04/26 05:12:39;;;;;;;8.00;3.45;;;;;;;6.41;46.97;102217.03;4913689;28;115191;-68
2021/04/26 05:15:24;;;;;;;10.30;4.18;;;;;;;6.42;47.12;102213.53;4914271;28;114781;-67
2021/04/26 05:17:53;;;;;;;10.77;3.97;;;;;;;6.43;47.38;102215.28;4911438;28;123191;-68
2021/04/26 05:20:21;;;;;;;10.07;3.83;;;;;;;6.44;47.47;102216.13;4916524;28;122925;-68
2021/04/26 05:22:49;;;;;;;6.93;4.20;;;;;;;6.47;47.83;102220.53;4912466;28;114514;-68
2021/04/26 05:25:15;;;;;;;10.80;4.03;;;;;;;6.49;47.89;102214.38;4911302;28;115293;-68
2021/04/26 05:27:44;;;;;;;10.27;4.28;;;;;;;6.54;47.97;102211.72;4913215;28;123356;-68
2021/04/26 05:30:13;;;;;;;11.88;4.70;;;;;;;6.57;47.88;102206.41;4913725;28;123992;-67
2021/04/26 05:32:40;;;;;;;13.13;5.07;;;;;;;6.60;48.03;102209.91;4915425;28;114495;-67
2021/04/26 05:35:20;;;;;;;15.75;4.18;;;;;;;6.65;48.07;102209.91;4916470;28;113261;-67
2021/04/26 05:37:50;;;;;;;11.80;4.70;;;;;;;6.67;48.44;102208.13;4925469;28;122936;-67
2021/04/26 05:40:17;;;;;;;9.68;4.38;;;;;;;6.70;48.25;102208.09;4914559;28;124132;-67
2021/04/26 05:42:48;;;;;;;8.88;4.07;;;;;;;6.75;48.36;102211.56;4906649;28;113744;-67
2021/04/26 05:45:18;;;;;;;16.88;4.22;;;;;;;6.78;48.12;102206.28;4900412;28;113991;-67
2021/04/26 05:48:08;;;;;;;9.65;4.35;;;;;;;6.83;48.42;102209.75;4912618;28;124414;-68
2021/04/26 05:50:36;;;;;;;15.13;4.20;;;;;;;6.87;48.73;102209.72;4900849;28;123125;-68
2021/04/26 05:53:03;;;;;;;8.68;3.92;;;;;;;6.91;48.64;102207.06;4914756;28;114160;-67
2021/04/26 05:55:30;;;;;;;11.02;4.05;;;;;;;6.95;48.89;102207.91;4913350;28;114513;-67
2021/04/26 05:57:57;;;;;;;13.57;4.10;;;;;;;6.99;49.02;102209.66;4914832;28;124237;-67
2021/04/26 06:00:24;;;;;;;10.27;3.78;;;;;;;7.06;49.35;102206.06;4913841;28;123348;-67
2021/04/26 06:02:51;;;;;;;10.50;3.90;;;;;;;7.08;49.29;102201.63;4922989;28;113696;-67
2021/04/26 06:05:18;;;;;;;12.02;3.85;;;;;;;7.14;49.29;102201.59;4930750;28;114041;-68
2021/04/26 06:07:45;;;;;;;7.60;3.88;;;;;;;7.19;49.45;102204.19;4920144;28;124333;-68
2021/04/26 06:10:12;;;;;;;13.07;3.63;;;;;;;7.24;49.50;102204.16;4919372;28;123530;-68
2021/04/26 06:12:39;;;;;;;8.77;4.05;;;;;;;7.30;49.65;102204.09;4912682;28;115647;-68
2021/04/26 06:15:07;;;;;;;10.02;3.72;;;;;;;7.35;49.41;102212.84;4915873;28;115250;-68
2021/04/26 06:17:33;;;;;;;9.93;3.65;;;;;;;7.41;49.21;102202.22;4914907;28;123872;-67
2021/04/26 06:20:00;;;;;;;7.43;3.60;;;;;;;7.47;49.05;102202.16;4915083;28;123454;-68
2021/04/26 06:22:27;;;;;;;8.73;3.60;;;;;;;7.54;49.25;102203.84;4913223;28;114401;-68
2021/04/26 06:24:54;;;;;;;11.30;3.40;;;;;;;7.62;48.79;102195.84;4914935;28;114428;-68
2021/04/26 06:27:23;;;;;;;11.32;3.60;;;;;;;7.71;48.82;102205.44;4914480;28;124111;-68
2021/04/26 06:29:49;;;;;;;6.60;3.35;;;;;;;7.80;48.90;102200.06;4921084;28;124016;-69
2021/04/26 06:32:17;;;;;;;9.23;3.50;;;;;;;7.89;48.73;102199.97;4933938;28;114269;-69
2021/04/26 06:34:44;;;;;;;9.88;3.70;;;;;;;7.99;48.30;102201.56;4914615;28;113926;-68
2021/04/26 06:37:18;;;;;;;7.22;3.30;;;;;;;8.09;48.68;102201.47;4920230;28;124020;-69
2021/04/26 06:39:45;;;;;;;7.35;2.72;;;;;;;8.19;48.08;102197.81;4919805;28;123863;-69
2021/04/26 06:42:11;;;;;;;7.35;3.47;;;;;;;8.31;48.17;102197.66;4909681;28;114559;-68
2021/04/26 06:44:40;;;;;;;7.97;3.42;;;;;;;8.45;48.24;102192.19;4908492;28;114062;-69
2021/04/26 06:47:07;;;;;;;6.30;3.25;;;;;;;8.60;47.95;102188.47;4914310;28;123745;-68
2021/04/26 06:49:34;;;;;;;10.45;3.67;;;;;;;8.76;47.84;102189.13;4902917;28;124627;-68
2021/04/26 06:52:00;;;;;;;7.53;3.33;;;;;;;8.90;47.60;102196.81;4906967;28;113979;-68
2021/04/26 06:54:28;;;;;;;9.43;3.33;;;;;;;9.05;47.42;102190.41;4901049;28;112953;-68
2021/04/26 06:56:54;;;;;;;10.48;3.40;;;;;;;9.22;47.16;102198.03;4908789;28;123485;-68
2021/04/26 06:59:21;;;;;;;9.48;3.35;;;;;;;9.36;46.97;102193.34;4912550;28;123762;-67
2021/04/26 07:01:48;;;;;;;7.43;3.30;;;;;;;9.52;46.73;102186.88;4918569;28;115371;-67
2021/04/26 07:04:14;;;;;;;7.70;3.50;;;;;;;9.67;46.63;102185.72;4911158;28;113895;-67
2021/04/26 07:06:41;;;;;;;10.05;3.10;;;;;;;9.84;46.54;102185.38;4913802;28;124774;-67
2021/04/26 07:09:08;;;;;;;6.82;3.08;;;;;;;9.97;46.28;102177.22;4913020;28;124290;-67
2021/04/26 07:11:34;;;;;;;6.68;3.35;;;;;;;10.12;46.12;102182.16;4912741;28;114566;-68
2021/04/26 07:14:01;;;;;;;6.45;2.95;;;;;;;10.27;45.73;102176.53;4913736;28;114440;-67
2021/04/26 07:16:28;;;;;;;7.38;3.05;;;;;;;10.43;45.82;102171.78;4913785;28;123352;-67
2021/04/26 07:18:56;;;;;;;8.75;3.25;;;;;;;10.57;45.40;102174.13;4914598;28;124233;-68
2021/04/26 07:21:23;;;;;;;8.60;3.40;;;;;;;10.68;45.20;102177.38;4901239;28;114339;-68
2021/04/26 07:23:49;;;;;;;8.15;2.90;;;;;;;10.85;44.93;102165.47;4910180;28;114018;-68
2021/04/26 07:26:17;;;;;;;9.73;3.33;;;;;;;11.00;44.70;102167.78;4917040;28;124172;-68
2021/04/26 07:28:43;;;;;;;6.93;3.05;;;;;;;11.17;44.94;102163.78;4920172;28;124196;-68
2021/04/26 07:31:10;;;;;;;7.93;3.65;;;;;;;11.34;44.56;102160.69;4914956;28;114063;-68
2021/04/26 07:33:37;;;;;;;8.23;2.97;;;;;;;11.50;44.15;102154.94;4899852;28;114036;-68
2021/04/26 07:36:05;;;;;;;10.27;3.15;;;;;;;11.65;43.46;102150.13;4909552;28;124766;-68
2021/04/26 07:38:35;;;;;;;5.93;3.03;;;;;;;11.76;43.56;102158.63;4927676;28;123956;-69
2021/04/26 07:41:02;;;;;;;9.02;3.40;;;;;;;11.86;43.35;102152.13;4912525;28;114442;-69
2021/04/26 07:43:29;;;;;;;6.68;3.10;;;;;;;11.96;42.68;102149.25;4917698;28;114261;-69
2021/04/26 07:45:56;;;;;;;7.68;3.28;;;;;;;12.02;42.59;102147.28;4922815;28;124342;-69
2021/04/26 07:48:22;;;;;;;7.95;3.20;;;;;;;12.08;42.62;102143.56;4913103;28;123106;-69
2021/04/26 07:50:51;;;;;;;7.88;3.42;;;;;;;12.19;42.54;102146.78;4912866;28;115289;-69
2021/04/26 07:53:18;;;;;;;7.18;3.20;;;;;;;12.31;41.97;102144.66;4914569;28;115283;-69
2021/04/26 07:55:45;;;;;;;7.30;3.13;;;;;;;12.41;42.12;102148.75;4912983;28;123041;-69
2021/04/26 07:58:11;;;;;;;10.23;3.20;;;;;;;12.51;41.85;102142.22;4912380;28;124806;-69
2021/04/26 08:00:39;;;;;;;6.65;3.05;;;;;;;12.60;41.61;102147.25;4913251;28;113404;-69
2021/04/26 08:03:06;;;;;;;5.80;3.03;;;;;;;12.71;41.31;102138.03;4912707;28;114302;-69
2021/04/26 08:05:32;;;;;;;6.18;3.13;;;;;;;12.80;41.15;102143.06;4909815;28;123755;-69
2021/04/26 08:07:59;;;;;;;6.00;3.00;;;;;;;12.89;40.96;102142.75;4912007;28;123764;-70
2021/04/26 08:10:26;;;;;;;6.30;3.25;;;;;;;12.98;40.84;102145.09;4910541;28;114301;-69
2021/04/26 08:12:52;;;;;;;6.75;3.20;;;;;;;13.08;40.82;102147.44;4913466;28;113053;-70
2021/04/26 08:15:21;;;;;;;7.65;3.53;;;;;;;13.18;40.20;102138.19;4912397;28;123084;-69
2021/04/26 08:17:48;;;;;;;6.95;3.35;;;;;;;13.28;40.23;102141.41;4906290;28;122774;-68
2021/04/26 08:20:15;;;;;;;7.45;3.38;;;;;;;13.40;39.81;102143.69;4904901;28;114515;-68
2021/04/26 08:22:42;;;;;;;6.03;3.25;;;;;;;13.51;39.90;102156.59;4914092;28;114298;-68
2021/04/26 08:25:09;;;;;;;11.85;3.60;;;;;;;13.57;39.28;102135.06;4911716;28;124179;-67
2021/04/26 08:27:36;;;;;;;6.32;3.28;;;;;;;13.63;39.20;102135.69;4911435;28;124417;-68
2021/04/26 08:30:05;;;;;;;6.10;3.25;;;;;;;13.72;39.28;102145.16;4909949;28;114726;-68
2021/04/26 08:32:32;;;;;;;5.75;3.35;;;;;;;13.80;39.38;102142.19;4915460;28;113010;-68
2021/04/26 08:34:59;;;;;;;8.15;3.45;;;;;;;13.90;39.39;102137.38;4899843;28;124915;-68
2021/04/26 08:37:26;;;;;;;10.23;3.90;;;;;;;13.98;39.29;102127.31;4921710;28;123506;-68
2021/04/26 08:39:54;;;;;;;8.98;3.60;;;;;;;14.09;38.92;102127.78;4915961;28;115370;-68
2021/04/26 08:42:22;;;;;;;5.85;3.35;;;;;;;14.21;38.98;102121.09;4906529;28;114178;-68
2021/04/26 08:44:49;;;;;;;7.55;3.28;;;;;;;14.33;38.63;102125.03;4904775;28;124795;-68
2021/04/26 08:47:19;;;;;;;7.80;3.80;;;;;;;14.41;37.73;102122.97;4899157;28;124209;-68
2021/04/26 08:49:46;;;;;;;7.55;3.55;;;;;;;14.47;37.77;102117.38;4911420;28;114554;-68
2021/04/26 08:52:14;;;;;;;9.00;3.35;;;;;;;14.55;37.83;102119.72;4912060;28;113776;-68
2021/04/26 08:54:40;;;;;;;7.75;3.28;;;;;;;14.63;37.55;102111.44;4912345;28;123936;-69
2021/04/26 08:57:08;;;;;;;6.43;3.78;;;;;;;14.70;37.54;102113.78;4900978;28;124843;-69
2021/04/26 08:59:35;;;;;;;7.38;3.58;;;;;;;14.78;37.06;102114.31;4917617;28;113382;-68
2021/04/26 09:02:05;;;;;;;10.35;3.67;;;;;;;14.83;37.11;102107.94;4914337;28;113099;-68
2021/04/26 09:04:34;;;;;;;7.13;3.45;;;;;;;14.87;37.00;102114.88;4913826;28;124168;-69
2021/04/26 09:07:04;;;;;;;6.30;3.55;;;;;;;14.91;36.54;102106.66;4916522;28;124218;-68
2021/04/26 09:09:45;;;;;;;5.55;3.38;;;;;;;14.97;36.49;102106.41;4903008;28;114438;-68
2021/04/26 09:12:25;;;;;;;8.18;3.63;;;;;;;15.01;36.33;102095.59;4917184;28;114319;-68
2021/04/26 09:14:53;;;;;;;7.38;3.28;;;;;;;15.08;36.66;102091.72;4916979;28;124433;-68
2021/04/26 09:17:31;;;;;;;5.75;3.55;;;;;;;15.17;36.68;102085.97;4914999;28;124104;-69
2021/04/26 09:20:14;;;;;;;9.45;3.50;;;;;;;15.30;36.82;102081.81;4912585;28;114415;-69
2021/04/26 09:22:54;;;;;;;8.82;3.60;;;;;;;15.45;36.05;102080.25;4916163;28;114290;-69
2021/04/26 09:25:27;;;;;;;5.50;3.10;;;;;;;15.58;35.76;102085.91;4915445;28;124367;-68
2021/04/26 09:28:11;;;;;;;5.00;2.90;;;;;;;15.68;34.75;102081.88;4902946;28;123767;-69
2021/04/26 09:30:49;;;;;;;5.93;3.25;;;;;;;15.72;34.82;102078.09;4920063;28;115227;-68
2021/04/26 09:33:15;;;;;;;5.45;3.35;;;;;;;15.79;34.70;102077.88;4918190;28;114949;-69
2021/04/26 09:35:43;;;;;;;6.25;3.70;;;;;;;15.84;34.67;102066.03;4914710;28;124584;-68
2021/04/26 09:38:29;;;;;;;7.72;3.40;;;;;;;15.92;33.85;102074.53;4926866;28;123127;-68
2021/04/26 09:41:11;;;;;;;11.80;3.55;;;;;;;16.01;33.68;102078.59;4917496;28;113306;-68
2021/04/26 09:43:40;;;;;;;8.63;3.65;;;;;;;16.08;32.95;102073.78;4930535;23;114416;-73
2021/04/26 09:46:08;;;;;;;7.97;3.35;;;;;;;16.12;33.08;102070.91;4914371;28;123980;-73
2021/04/26 09:48:36;;;;;;;5.80;3.53;;;;;;;16.18;32.17;102071.53;4913995;28;123981;-73
2021/04/26 09:51:10;;;;;;;6.28;3.33;;;;;;;16.21;31.77;102074.06;4897158;28;114682;-73
2021/04/26 09:53:40;;;;;;;6.70;3.45;;;;;;;16.26;32.17;102056.00;4912124;28;113159;-72
2021/04/26 09:56:17;;;;;;;6.40;3.47;;;;;;;16.32;31.58;102066.38;4913393;28;124050;-72
2021/04/26 09:58:55;;;;;;;8.45;3.63;;;;;;;16.36;32.35;102057.25;4910744;28;124012;-73
2021/04/26 10:01:26;;;;;;;7.60;3.20;;;;;;;16.39;32.10;102051.78;4893831;28;113297;-73
2021/04/26 10:03:54;;;;;;;5.10;3.38;;;;;;;16.44;31.92;102060.41;4911913;28;114105;-72
2021/04/26 10:06:24;;;;;;;6.43;3.55;;;;;;;16.49;31.90;102047.66;4895900;28;123973;-73
2021/04/26 10:08:55;;;;;;;9.18;3.75;;;;;;;16.52;31.26;102042.19;4912788;28;123952;-72
2021/04/26 10:11:25;;;;;;;7.03;3.47;;;;;;;16.57;31.43;102043.75;4914450;28;113456;-72
2021/04/26 10:14:09;;;;;;;8.27;3.60;;;;;;;16.67;31.37;102039.63;4913127;28;113793;-72
2021/04/26 10:16:42;;;;;;;5.78;3.47;;;;;;;16.77;31.26;102032.03;4912358;28;125087;-73
2021/04/26 10:19:15;;;;;;;4.68;3.35;;;;;;;16.82;30.48;102033.56;4911032;28;124229;-73
2021/04/26 10:21:55;;;;;;;6.22;3.53;;;;;;;16.80;31.01;102032.75;4896801;28;114608;-73
2021/04/26 10:24:25;;;;;;;5.63;3.13;;;;;;;16.84;30.88;102031.66;4902070;28;115106;-73
2021/04/26 10:27:08;;;;;;;5.35;3.38;;;;;;;16.90;31.03;102031.34;4912255;28;123950;-72
2021/04/26 10:29:38;;;;;;;7.72;3.72;;;;;;;16.98;30.81;102024.72;4900833;28;124409;-73
2021/04/26 10:32:25;;;;;;;6.88;3.75;;;;;;;17.03;30.98;102020.00;4913598;28;115658;-73
2021/04/26 10:34:53;;;;;;;8.18;3.72;;;;;;;17.09;30.63;102019.66;4912689;28;114100;-73
2021/04/26 10:37:22;;;;;;;5.85;3.67;;;;;;;17.14;30.33;102025.63;4913021;28;124242;-73
2021/04/26 10:39:58;;;;;;;6.03;3.55;;;;;;;17.18;30.25;102008.44;4913298;28;124316;-72
2021/04/26 10:42:33;;;;;;;6.35;3.42;;;;;;;17.18;29.47;102008.44;4903948;28;114721;-73
2021/04/26 10:45:02;;;;;;;6.88;3.65;;;;;;;17.18;29.68;101997.75;4918152;28;114770;-74
2021/04/26 10:47:38;;;;;;;7.18;3.90;;;;;;;17.22;29.84;101993.94;4917419;28;123938;-73
2021/04/26 10:50:05;;;;;;;8.10;3.75;;;;;;;17.27;29.58;101997.25;4911659;28;122655;-73
2021/04/26 10:52:39;;;;;;;5.55;4.00;;;;;;;17.31;29.81;101998.78;4917715;28;114575;-74
2021/04/26 10:55:31;;;;;;;5.85;3.72;;;;;;;17.35;29.35;101982.53;4919146;28;114121;-74
2021/04/26 10:58:18;;;;;;;6.43;3.22;;;;;;;17.37;29.74;101975.31;4911766;28;123831;-74
2021/04/26 11:00:45;;;;;;;5.25;3.35;;;;;;;17.39;29.93;101966.22;4910050;28;124132;-73
2021/04/26 11:03:12;;;;;;;5.88;3.70;;;;;;;17.46;29.61;101964.06;4896045;28;114564;-73
2021/04/26 11:05:51;;;;;;;7.53;4.00;;;;;;;17.48;29.56;101954.16;4895657;28;113155;-73
2021/04/26 11:08:27;;;;;;;6.30;4.03;;;;;;;17.53;30.22;101938.66;4912257;28;123162;-72
2021/04/26 11:13:34;;;;;;;6.70;3.78;;;;;;;17.70;29.86;101941.22;4911814;28;114733;-73
2021/04/26 11:16:05;;;;;;;5.45;3.40;;;;;;;17.79;29.10;101939.00;4912811;28;115325;-74
2021/04/26 11:18:34;;;;;;;7.95;3.67;;;;;;;17.83;29.21;101938.72;4911747;28;123943;-74
2021/04/26 11:21:01;;;;;;;8.90;3.78;;;;;;;17.84;28.43;101934.25;4927036;28;124219;-73
2021/04/26 11:23:53;;;;;;;8.10;3.70;;;;;;;17.84;28.95;101928.88;4901742;28;113970;-74
2021/04/26 11:26:22;;;;;;;6.00;3.70;;;;;;;17.87;29.16;101926.03;4909380;28;113168;-73
2021/04/26 11:29:01;;;;;;;9.77;3.85;;;;;;;17.92;29.24;101923.94;4891722;28;124744;-73
2021/04/26 11:31:40;;;;;;;5.03;3.40;;;;;;;17.98;29.95;101928.94;4895069;28;123968;-74
2021/04/26 11:34:17;;;;;;;5.85;3.50;;;;;;;18.04;29.20;101923.22;4891808;28;114128;-73
2021/04/26 11:37:02;;;;;;;4.82;3.70;;;;;;;18.03;29.09;101910.78;4902575;28;113789;-73
2021/04/26 11:39:34;;;;;;;6.50;3.60;;;;;;;18.06;28.92;101915.97;4919255;28;124063;-73
2021/04/26 11:42:01;;;;;;;7.05;3.50;;;;;;;18.08;28.43;101914.06;4898878;28;122731;-73
2021/04/26 11:44:32;;;;;;;6.80;3.55;;;;;;;18.05;28.34;101911.53;4919578;28;114776;-73
2021/04/26 11:47:06;;;;;;;8.73;4.00;;;;;;;18.04;28.23;101896.41;4895735;28;115378;-73